Time;durP1;ratioP1;P1;durP2;ratioP2;P2;SDS_P1;SDS_P2;PMS_P1;PMS_P2;Temp;Humidity;BMP_temperature;BMP_pressure;BME280_temperature;BME280_humidity;BME280_pressure;Samples;Min_cycle;Max_cycle;Signal;HPM_P1;HPM_P2
2022/06/04 00:00:42;;;;;;;;;31.67;30.67;;;;;19.18;82.50;101015.69;5100125;27;46271;-71
2022/06/04 00:03:08;;;;;;;;;32.33;31.00;;;;;19.12;82.24;101021.97;5100279;27;45378;-71
2022/06/04 00:05:37;;;;;;;;;34.33;31.33;;;;;19.13;82.30;101020.94;5083727;27;45359;-71
2022/06/04 00:08:04;;;;;;;;;36.33;33.00;;;;;19.10;82.43;101021.38;5040638;28;1108693;-71
2022/06/04 00:16:06;;;;;;;;;32.67;31.00;;;;;18.92;82.51;101013.03;5080777;28;45294;-71
2022/06/04 00:18:32;;;;;;;;;32.33;30.00;;;;;18.93;82.72;101019.25;5096486;27;46996;-71
2022/06/04 00:20:58;;;;;;;;;33.33;31.67;;;;;18.87;82.89;101009.38;5080758;27;46109;-71
2022/06/04 00:23:25;;;;;;;;;31.67;30.33;;;;;18.95;82.61;101016.34;5080831;28;45393;-71
2022/06/04 00:25:53;;;;;;;;;34.00;31.00;;;;;18.87;82.80;101009.38;5080851;27;45282;-71
2022/06/04 00:28:21;;;;;;;;;35.33;32.00;;;;;18.91;82.27;101013.25;5080202;28;47175;-71
2022/06/04 00:30:47;;;;;;;;;33.67;30.33;;;;;18.89;82.60;101008.09;5079134;28;47456;-71
2022/06/04 00:33:13;;;;;;;;;36.33;32.00;;;;;18.84;82.93;100999.88;5080554;27;45717;-71
2022/06/04 00:35:39;;;;;;;;;33.00;31.00;;;;;18.87;82.99;101007.50;5080685;28;45334;-71
2022/06/04 00:38:06;;;;;;;;;29.67;29.00;;;;;18.84;82.56;101007.13;5078976;28;47652;-71
2022/06/04 00:40:37;;;;;;;;;34.00;31.00;;;;;18.78;82.63;101000.78;5080138;27;46198;-71
2022/06/04 00:43:03;;;;;;;;;32.00;31.00;;;;;18.71;83.16;101000.84;5079865;28;45275;-71
2022/06/04 00:45:34;;;;;;;;;31.67;29.33;;;;;18.65;83.30;101010.63;5080442;27;45532;-71
2022/06/04 00:48:01;;;;;;;;;24.00;23.33;;;;;18.64;83.44;101016.22;5078912;28;46224;-71
2022/06/04 00:50:30;;;;;;;;;35.00;32.00;;;;;18.63;83.14;101010.03;5080192;27;45385;-71
2022/06/04 00:52:59;;;;;;;;;33.33;29.67;;;;;18.62;83.09;101012.94;5080310;27;45303;-71
2022/06/04 00:55:29;;;;;;;;;31.33;30.00;;;;;18.60;83.48;101007.78;5096173;27;45319;-71
2022/06/04 00:58:23;;;;;;;;;29.00;28.67;;;;;18.61;83.44;100998.66;5112600;27;47345;-71
2022/06/04 01:00:48;;;;;;;;;29.33;28.33;;;;;18.56;84.09;101003.88;5078507;28;48021;-71
2022/06/04 01:03:53;;;;;;;;;26.67;25.67;;;;;18.51;83.43;100995.66;5080066;28;45330;-71
2022/06/04 01:06:42;;;;;;;;;29.00;29.00;;;;;18.52;83.56;100995.44;5060088;28;45487;-71
2022/06/04 01:09:45;;;;;;;;;28.67;27.67;;;;;18.51;83.74;100996.47;5058783;28;45446;-71
2022/06/04 01:12:13;;;;;;;;;27.67;27.67;;;;;18.53;83.97;100993.56;5059543;28;45284;-72
2022/06/04 01:14:49;;;;;;;;;27.33;26.33;;;;;18.52;83.84;100983.81;5059700;28;45375;-71
2022/06/04 01:17:21;;;;;;;;;32.00;29.33;;;;;18.52;83.76;100978.44;5059509;28;45327;-71
2022/06/04 01:20:11;;;;;;;;;30.00;28.00;;;;;18.50;83.71;100967.09;5059435;28;45475;-71
2022/06/04 01:22:52;;;;;;;;;33.00;30.33;;;;;18.54;83.80;100968.28;5059479;28;45435;-71
2022/06/04 01:25:57;;;;;;;;;31.33;29.33;;;;;18.55;83.32;100969.94;5059362;28;45280;-71
2022/06/04 01:28:27;;;;;;;;;30.33;27.67;;;;;18.46;83.33;100947.88;5059400;28;45251;-71
2022/06/04 01:30:56;;;;;;;;;30.00;28.33;;;;;18.45;83.47;100957.00;5059264;28;45340;-71
2022/06/04 01:33:37;;;;;;;;;34.33;30.67;;;;;18.40;83.67;100954.13;5059286;28;45276;-71
2022/06/04 01:36:26;;;;;;;;;32.67;30.00;;;;;18.33;83.65;100942.63;5059217;28;45398;-71
2022/06/04 01:39:00;;;;;;;;;30.67;29.00;;;;;18.33;83.58;100946.13;5059460;28;45288;-71
2022/06/04 01:41:44;;;;;;;;;31.00;30.33;;;;;18.36;83.94;100945.69;5059131;28;45344;-71
2022/06/04 01:44:16;;;;;;;;;33.67;31.00;;;;;18.33;83.44;100945.31;5058841;28;46493;-71
2022/06/04 01:46:48;;;;;;;;;30.00;29.00;;;;;18.33;84.05;100942.63;5059256;28;45284;-71
2022/06/04 01:49:29;;;;;;;;;31.00;30.00;;;;;18.36;83.64;100952.94;5059123;28;45360;-71
2022/06/04 01:52:00;;;;;;;;;32.00;30.67;;;;;18.29;83.78;100934.19;5059124;28;45386;-71
2022/06/04 01:54:45;;;;;;;;;30.67;28.67;;;;;18.37;83.81;100946.50;5058914;28;45600;-71
2022/06/04 01:57:16;;;;;;;;;31.67;29.67;;;;;18.33;83.54;100942.63;5058900;28;45315;-71
2022/06/04 01:59:46;;;;;;;;;31.33;30.00;;;;;18.37;83.81;100951.88;5059003;28;45152;-71
2022/06/04 02:02:17;;;;;;;;;33.33;30.67;;;;;18.34;83.68;100944.25;5058963;28;45379;-71
2022/06/04 02:04:52;;;;;;;;;29.00;28.67;;;;;18.29;83.18;100945.75;5074672;27;45475;-71
2022/06/04 02:07:30;;;;;;;;;32.00;30.33;;;;;18.26;84.02;100942.69;5099544;27;45279;-71
2022/06/04 02:10:12;;;;;;;;;32.33;30.33;;;;;18.28;83.93;100937.91;5099682;27;45417;-71
2022/06/04 02:12:40;;;;;;;;;32.33;30.33;;;;;18.29;83.35;100942.25;5114954;27;46952;-71
2022/06/04 02:15:10;;;;;;;;;33.75;30.25;;;;;18.18;83.97;100922.28;5099341;27;46421;-71
2022/06/04 02:17:39;;;;;;;;;31.67;30.00;;;;;18.21;83.96;100940.66;5099338;27;45418;-70
2022/06/04 02:20:06;;;;;;;;;30.67;29.33;;;;;18.07;84.04;100921.09;5115304;27;45312;-70
2022/06/04 02:22:31;;;;;;;;;28.33;27.33;;;;;18.15;84.11;100926.22;5099250;27;45318;-70
2022/06/04 02:25:00;;;;;;;;;30.33;29.00;;;;;18.18;84.21;100941.09;5132484;27;46204;-71
2022/06/04 02:27:26;;;;;;;;;32.00;30.00;;;;;18.12;83.91;100928.53;5099782;27;45416;-71
2022/06/04 02:29:51;;;;;;;;;29.33;28.00;;;;;18.17;84.26;100939.47;5103091;27;45376;-71
2022/06/04 02:32:38;;;;;;;;;23.00;22.67;;;;;18.03;84.05;100919.88;5103146;27;45250;-71
2022/06/04 02:35:15;;;;;;;;;30.67;29.00;;;;;18.00;83.92;100902.34;5102899;27;46213;-71
2022/06/04 02:37:50;;;;;;;;;27.33;27.33;;;;;18.07;83.68;100928.34;5102865;27;45277;-71
2022/06/04 02:40:54;;;;;;;;;27.67;25.67;;;;;18.07;84.37;100914.91;5102923;27;45290;-71
2022/06/04 02:43:29;;;;;;;;;27.33;26.00;;;;;18.10;84.26;100915.31;5101626;27;45610;-70
2022/06/04 02:46:15;;;;;;;;;27.00;27.00;;;;;18.04;84.24;100903.53;5102616;27;45911;-70
2022/06/04 02:48:48;;;;;;;;;29.67;28.67;;;;;18.00;84.40;100905.03;5102777;27;45548;-71
2022/06/04 02:51:22;;;;;;;;;35.33;30.00;;;;;18.07;84.26;100909.53;5102801;27;45309;-71
2022/06/04 02:53:49;;;;;;;;;29.67;28.33;;;;;18.04;84.01;100922.34;5102547;27;45466;-71
2022/06/04 02:56:23;;;;;;;;;27.33;26.33;;;;;18.01;84.22;100911.19;5102477;27;45324;-71
2022/06/04 02:58:54;;;;;;;;;26.67;26.67;;;;;18.07;83.99;100925.66;5102314;27;45383;-71
2022/06/04 03:01:21;;;;;;;;;26.00;24.33;;;;;18.05;83.90;100924.00;5102653;27;45438;-71
2022/06/04 03:03:46;;;;;;;;;30.67;29.67;;;;;18.04;83.88;100916.16;5100856;27;46552;-71
2022/06/04 03:06:33;;;;;;;;;28.33;28.00;;;;;18.06;84.21;100908.69;5081830;28;45349;-71
2022/06/04 03:09:09;;;;;;;;;30.00;29.33;;;;;17.99;83.41;100914.09;5080532;28;46101;-71
2022/06/04 03:11:41;;;;;;;;;30.67;30.00;;;;;17.98;83.98;100920.53;5082039;28;45284;-71
2022/06/04 03:14:06;;;;;;;;;28.33;28.33;;;;;17.96;84.42;100922.63;5081615;27;45663;-71
2022/06/04 03:16:35;;;;;;;;;29.00;29.00;;;;;17.94;83.80;100927.41;5081776;27;45277;-71
2022/06/04 03:19:00;;;;;;;;;26.67;26.67;;;;;17.90;84.47;100923.50;5081691;27;45326;-71
2022/06/04 03:21:28;;;;;;;;;27.00;26.67;;;;;17.92;84.22;100922.25;5080515;28;45475;-71
2022/06/04 03:23:53;;;;;;;;;29.33;27.33;;;;;17.93;84.42;100920.38;5080278;28;46051;-71
2022/06/04 03:26:19;;;;;;;;;30.00;27.67;;;;;17.89;83.85;100919.16;5080085;28;48388;-71
2022/06/04 03:28:44;;;;;;;;;28.00;27.00;;;;;17.81;84.02;100912.22;5079968;28;45802;-71
2022/06/04 03:31:09;;;;;;;;;29.67;27.67;;;;;17.93;84.06;100933.84;5081789;27;45236;-71
2022/06/04 03:33:34;;;;;;;;;24.67;24.67;;;;;17.92;84.20;100934.84;5081445;27;48914;-71
2022/06/04 03:36:00;;;;;;;;;29.00;27.33;;;;;17.89;84.17;100928.06;5081508;27;46098;-71
2022/06/04 03:38:25;;;;;;;;;26.33;26.00;;;;;17.85;83.78;100924.16;5081366;27;45356;-71
2022/06/04 03:40:50;;;;;;;;;25.00;25.00;;;;;17.87;84.01;100937.41;5081227;27;45470;-71
2022/06/04 03:43:16;;;;;;;;;26.00;26.00;;;;;17.84;84.21;100935.13;5081263;27;45350;-71
2022/06/04 03:45:41;;;;;;;;;25.00;24.67;;;;;17.88;83.87;100930.97;5081366;28;45184;-70
2022/06/04 03:48:07;;;;;;;;;26.67;24.67;;;;;17.87;83.90;100934.69;5081336;27;45318;-71
2022/06/04 03:50:32;;;;;;;;;22.33;22.33;;;;;17.78;84.16;100918.03;5081508;27;45470;-71
2022/06/04 03:52:57;;;;;;;;;26.67;26.00;;;;;17.73;84.19;100926.75;5079797;28;46060;-71
2022/06/04 03:55:24;;;;;;;;;26.00;25.00;;;;;17.76;83.61;100923.63;5079744;28;50807;-71
2022/06/04 03:57:50;;;;;;;;;28.00;27.33;;;;;17.72;84.03;100925.06;5081021;27;45398;-71
2022/06/04 04:00:37;;;;;;;;;27.67;27.67;;;;;17.76;84.00;100928.16;5080998;28;45208;-71
2022/06/04 04:03:06;;;;;;;;;27.00;25.33;;;;;17.77;84.25;100927.09;5096683;27;47283;-71
2022/06/04 04:05:34;;;;;;;;;26.00;25.00;;;;;17.73;84.18;100925.91;5095610;27;45476;-71
2022/06/04 04:08:01;;;;;;;;;27.33;27.33;;;;;17.71;84.37;100920.75;5101250;27;45336;-71
2022/06/04 04:10:29;;;;;;;;;29.00;28.67;;;;;17.64;84.36;100928.03;5101424;27;45416;-71
2022/06/04 04:12:54;;;;;;;;;25.00;25.00;;;;;17.54;84.54;100921.25;5101074;27;45337;-71
2022/06/04 04:15:20;;;;;;;;;26.00;25.33;;;;;17.58;85.19;100931.59;5134352;27;47441;-72
2022/06/04 04:17:47;;;;;;;;;30.00;29.00;;;;;17.49;85.07;100926.47;5099789;27;45357;-71
2022/06/04 04:20:18;;;;;;;;;26.67;26.00;;;;;17.54;85.28;100952.72;5134252;27;45355;-71
2022/06/04 04:22:45;;;;;;;;;24.33;24.00;;;;;17.55;85.43;100965.09;5101167;27;45714;-71
2022/06/04 04:25:13;;;;;;;;;28.33;27.00;;;;;17.54;85.46;100969.63;5101087;27;45286;-71
2022/06/04 04:27:38;;;;;;;;;29.00;27.33;;;;;17.59;85.40;100976.22;5100691;27;45173;-71
2022/06/04 04:30:06;;;;;;;;;26.67;26.67;;;;;17.60;85.07;100972.50;5101180;27;45260;-71
2022/06/04 04:32:32;;;;;;;;;28.67;28.00;;;;;17.66;84.93;100991.28;5101028;27;45360;-70
2022/06/04 04:34:58;;;;;;;;;26.67;26.00;;;;;17.66;85.01;100998.53;5101040;27;46127;-71
2022/06/04 04:37:23;;;;;;;;;28.67;28.00;;;;;17.67;84.67;101002.84;5100802;27;45396;-71
2022/06/04 04:39:49;;;;;;;;;26.67;26.67;;;;;17.72;85.10;101008.38;5100990;27;45513;-71
2022/06/04 04:42:14;;;;;;;;;28.33;27.67;;;;;17.79;84.51;101022.66;5100253;27;45452;-71
2022/06/04 04:44:39;;;;;;;;;28.33;26.00;;;;;17.77;84.74;101016.66;5100836;27;45331;-71
2022/06/04 04:47:05;;;;;;;;;31.33;28.67;;;;;17.89;84.74;101037.44;5100830;27;45297;-71
2022/06/04 04:49:30;;;;;;;;;25.00;24.33;;;;;17.86;84.90;101025.28;5099720;27;45397;-71
2022/06/04 04:51:55;;;;;;;;;21.00;21.00;;;;;17.89;84.82;101022.16;5100122;27;45284;-71
2022/06/04 04:54:21;;;;;;;;;27.33;27.33;;;;;17.97;84.87;101036.38;5089812;27;49725;-70
2022/06/04 04:56:46;;;;;;;;;22.67;21.67;;;;;17.96;84.81;101026.69;5072659;27;45388;-71
2022/06/04 04:59:12;;;;;;;;;27.67;27.00;;;;;18.01;84.69;101034.91;5076865;28;45231;-71
2022/06/04 05:01:37;;;;;;;;;25.67;24.67;;;;;18.05;84.45;101036.13;5079601;27;45530;-71
2022/06/04 05:04:03;;;;;;;;;31.00;28.67;;;;;18.04;84.77;101016.47;5097995;27;48109;-71
2022/06/04 05:06:30;;;;;;;;;24.67;24.33;;;;;17.99;84.36;101002.84;5099278;27;45663;-70
2022/06/04 05:08:56;;;;;;;;;24.33;24.33;;;;;18.11;84.23;101034.47;5100439;27;45432;-71
2022/06/04 05:11:27;;;;;;;;;27.00;26.33;;;;;18.10;84.50;101048.91;5100443;27;45577;-70
2022/06/04 05:13:52;;;;;;;;;24.67;24.67;;;;;18.12;84.55;101058.47;5100206;27;45397;-71
2022/06/04 05:16:20;;;;;;;;;27.00;26.67;;;;;18.14;84.46;101052.84;5096979;27;45249;-71
2022/06/04 05:18:46;;;;;;;;;28.67;28.00;;;;;18.12;84.64;101046.88;5076801;27;45415;-71
2022/06/04 05:21:19;;;;;;;;;24.33;23.67;;;;;18.12;84.69;101023.50;5077856;27;45352;-71
2022/06/04 05:23:45;;;;;;;;;27.00;26.00;;;;;18.26;84.43;101048.41;5095506;27;48302;-71
2022/06/04 05:26:10;;;;;;;;;30.00;29.00;;;;;18.25;84.47;101038.69;5079727;27;45369;-71
2022/06/04 05:28:36;;;;;;;;;30.00;28.00;;;;;18.23;84.66;101032.69;5079786;27;45271;-72
2022/06/04 05:31:02;;;;;;;;;26.33;24.33;;;;;18.27;84.80;101033.94;5079796;27;45631;-71
2022/06/04 05:33:28;;;;;;;;;27.00;26.00;;;;;18.32;84.74;101027.06;5071617;28;48496;-72
2022/06/04 05:35:53;;;;;;;;;26.00;26.00;;;;;18.37;84.16;101029.91;5079444;27;45311;-71
2022/06/04 05:38:19;;;;;;;;;22.67;21.33;;;;;18.36;84.27;101020.19;5112553;27;45337;-71
2022/06/04 05:40:44;;;;;;;;;25.67;24.67;;;;;18.36;84.67;101010.28;5095023;27;47059;-72
2022/06/04 05:43:10;;;;;;;;;23.00;23.00;;;;;18.23;84.77;100978.91;5070796;27;51148;-71
2022/06/04 05:45:35;;;;;;;;;26.00;26.00;;;;;18.38;84.50;100989.34;5075583;27;45342;-71
2022/06/04 05:48:00;;;;;;;;;23.00;23.00;;;;;18.38;84.42;100980.47;5079211;27;45284;-71
2022/06/04 05:50:26;;;;;;;;;27.33;26.33;;;;;18.36;84.67;100986.06;5079506;27;45352;-71
2022/06/04 05:52:52;;;;;;;;;22.00;22.00;;;;;18.42;84.99;101006.69;5095322;27;47994;-71
2022/06/04 05:55:17;;;;;;;;;21.67;21.33;;;;;18.48;84.93;101013.06;5079454;27;45780;-71
2022/06/04 05:57:43;;;;;;;;;21.33;21.33;;;;;18.55;84.81;101018.38;5095134;27;45452;-71
2022/06/04 06:00:09;;;;;;;;;21.33;21.00;;;;;18.60;84.92;101015.03;5079242;27;45198;-71
2022/06/04 06:02:35;;;;;;;;;21.00;21.00;;;;;18.73;84.91;101014.06;5079850;27;45213;-70
2022/06/04 06:05:02;;;;;;;;;23.00;23.00;;;;;18.77;85.15;100999.94;5093325;27;45145;-71
2022/06/04 06:07:27;;;;;;;;;19.67;19.67;;;;;18.82;84.51;100996.56;5103338;27;45357;-70
2022/06/04 06:09:52;;;;;;;;;18.33;17.67;;;;;18.78;84.50;100976.53;5103325;27;45701;-71
2022/06/04 06:12:18;;;;;;;;;22.67;21.67;;;;;18.93;84.59;100985.09;5102874;27;46086;-70
2022/06/04 06:14:43;;;;;;;;;21.00;20.33;;;;;19.00;84.46;100974.22;5118991;27;45457;-70
2022/06/04 06:17:09;;;;;;;;;17.67;17.67;;;;;19.12;84.61;100982.41;5103465;27;45365;-71
2022/06/04 06:19:34;;;;;;;;;19.00;17.33;;;;;19.24;85.06;100985.16;5103005;27;45413;-71
2022/06/04 06:21:59;;;;;;;;;17.00;17.00;;;;;19.49;84.71;101011.19;5088047;27;48144;-71
2022/06/04 06:24:24;;;;;;;;;15.33;15.33;;;;;19.62;84.05;101028.19;5081066;28;45417;-72
2022/06/04 06:26:57;;;;;;;;;19.67;18.00;;;;;19.71;83.18;101029.53;5082739;27;45395;-73
2022/06/04 06:29:26;;;;;;;;;22.33;20.67;;;;;19.90;82.92;101032.16;5080341;27;45691;-72
2022/06/04 06:31:52;;;;;;;;;24.67;24.00;;;;;19.88;82.56;101020.81;5080023;27;46159;-72
2022/06/04 06:34:17;;;;;;;;;19.33;18.67;;;;;20.01;82.37;101028.72;5080143;28;45441;-72
2022/06/04 06:36:43;;;;;;;;;14.67;14.67;;;;;20.11;81.78;101043.53;5080315;28;45337;-73
2022/06/04 06:39:09;;;;;;;;;18.67;17.67;;;;;20.12;81.59;101046.00;5080165;27;45496;-72
2022/06/04 06:41:34;;;;;;;;;17.33;17.33;;;;;20.27;81.26;101077.13;5078528;28;48462;-72
2022/06/04 06:44:01;;;;;;;;;16.67;16.67;;;;;20.30;80.83;101092.84;5079903;28;45309;-73
2022/06/04 06:46:32;;;;;;;;;18.00;17.33;;;;;20.33;81.17;101115.84;5080116;27;45709;-72
2022/06/04 06:49:04;;;;;;;;;18.67;17.33;;;;;20.30;81.23;101082.84;5095522;27;46041;-72
2022/06/04 06:51:40;;;;;;;;;17.33;17.00;;;;;20.32;81.01;101090.72;5078230;28;48478;-73
2022/06/04 06:54:05;;;;;;;;;16.00;14.00;;;;;20.34;80.98;101093.19;5079649;28;45501;-73
2022/06/04 06:56:37;;;;;;;;;18.33;17.67;;;;;20.25;81.06;101077.34;5081631;27;45457;-73
2022/06/04 06:59:05;;;;;;;;;15.67;15.00;;;;;20.37;80.73;101112.44;5097605;27;46041;-73
2022/06/04 07:01:31;;;;;;;;;16.67;16.67;;;;;20.42;80.61;101107.16;5080988;27;45564;-72
2022/06/04 07:03:57;;;;;;;;;15.67;15.67;;;;;20.47;80.43;101094.88;5082995;27;45369;-72
2022/06/04 07:06:36;;;;;;;;;15.33;15.33;;;;;20.54;80.43;101104.53;5102440;27;45321;-72
2022/06/04 07:09:04;;;;;;;;;17.00;17.00;;;;;20.60;80.37;101100.06;5087620;27;45294;-72
2022/06/04 07:11:30;;;;;;;;;20.67;19.00;;;;;20.63;79.97;101096.06;5081732;27;45440;-72
2022/06/04 07:13:55;;;;;;;;;17.00;14.33;;;;;20.67;79.66;101091.84;5081151;28;45410;-72
2022/06/04 07:16:22;;;;;;;;;17.67;17.00;;;;;20.75;79.52;101091.50;5080409;28;45313;-72
2022/06/04 07:18:47;;;;;;;;;17.00;15.67;;;;;20.82;79.54;101091.38;5081434;28;45282;-72
2022/06/04 07:21:13;;;;;;;;;16.33;16.33;;;;;20.89;78.94;101085.88;5081459;27;45307;-71
2022/06/04 07:23:39;;;;;;;;;0.00;0.00;;;;;20.98;79.03;101078.25;5081846;28;45336;-72
2022/06/04 07:26:05;;;;;;;;;18.00;16.67;;;;;21.01;78.77;101064.28;5081464;27;45369;-71
2022/06/04 07:28:32;;;;;;;;;17.00;16.33;;;;;21.09;78.18;101072.00;5096996;27;46078;-71
2022/06/04 07:30:58;;;;;;;;;19.33;19.33;;;;;21.16;78.19;101070.00;5081302;27;46276;-71
2022/06/04 07:33:25;;;;;;;;;19.00;19.00;;;;;21.31;78.25;101071.41;5079865;27;45316;-71
2022/06/04 07:35:51;;;;;;;;;14.67;14.67;;;;;21.36;78.27;101065.25;5081801;27;45332;-70
2022/06/04 07:38:17;;;;;;;;;17.33;17.33;;;;;21.49;77.81;101074.97;5080057;27;45859;-71
2022/06/04 07:40:44;;;;;;;;;16.67;16.67;;;;;21.58;77.88;101073.56;5081277;27;45397;-71
2022/06/04 07:43:11;;;;;;;;;15.00;15.00;;;;;21.73;77.83;101073.00;5081244;28;45279;-71
2022/06/04 07:45:36;;;;;;;;;15.33;15.33;;;;;21.88;76.93;101079.81;5080349;28;45320;-71
2022/06/04 07:48:03;;;;;;;;;13.33;12.33;;;;;22.00;76.70;101079.75;5081299;28;45751;-71
2022/06/04 07:50:28;;;;;;;;;13.33;13.33;;;;;22.11;76.73;101070.75;5081233;27;46414;-71
2022/06/04 07:52:56;;;;;;;;;16.67;16.67;;;;;22.29;76.86;101072.41;5079690;28;45523;-71
2022/06/04 07:55:21;;;;;;;;;15.00;15.00;;;;;22.38;75.62;101070.09;5081366;27;45358;-71
2022/06/04 07:57:48;;;;;;;;;15.67;13.33;;;;;22.31;74.83;101040.50;5080861;28;45294;-71
2022/06/04 08:00:14;;;;;;;;;12.33;12.33;;;;;22.61;74.48;101072.91;5079596;28;47137;-71
2022/06/04 08:02:42;;;;;;;;;13.00;12.33;;;;;22.63;73.97;101058.03;5079456;28;45246;-71
2022/06/04 08:05:08;;;;;;;;;12.33;11.33;;;;;22.78;73.26;101068.28;5097667;27;45377;-71
2022/06/04 08:07:34;;;;;;;;;11.67;11.67;;;;;22.81;72.27;101059.66;5097943;27;46190;-72
2022/06/04 08:10:00;;;;;;;;;10.00;10.00;;;;;22.77;72.16;101049.56;5100466;27;45597;-72
2022/06/04 08:12:30;;;;;;;;;11.67;11.00;;;;;22.98;72.12;101069.66;5100631;27;45427;-72
2022/06/04 08:14:55;;;;;;;;;10.67;10.67;;;;;23.03;72.20;101058.88;5101235;27;45321;-72
2022/06/04 08:17:23;;;;;;;;;12.00;11.67;;;;;23.04;71.81;101055.09;5082697;27;46038;-72
2022/06/04 08:19:48;;;;;;;;;13.33;13.33;;;;;23.10;71.27;101057.88;5101050;27;45570;-71
2022/06/04 08:22:14;;;;;;;;;12.00;12.00;;;;;23.11;71.14;101062.22;5099562;27;45405;-72
2022/06/04 08:24:40;;;;;;;;;13.00;13.00;;;;;23.19;71.26;101069.91;5100890;27;45242;-72
2022/06/04 08:27:06;;;;;;;;;12.33;12.33;;;;;23.25;70.72;101071.63;5099447;27;45392;-71
2022/06/04 08:29:35;;;;;;;;;11.33;11.00;;;;;23.28;71.00;101067.56;5115532;27;46990;-72
2022/06/04 08:32:02;;;;;;;;;11.33;9.67;;;;;23.31;70.47;101056.22;5100271;27;45352;-71
2022/06/04 08:34:28;;;;;;;;;11.67;11.67;;;;;23.33;70.57;101062.22;5100094;27;45363;-72
2022/06/04 08:36:53;;;;;;;;;11.67;11.67;;;;;23.20;70.13;101041.75;5100407;27;45443;-71
2022/06/04 08:39:19;;;;;;;;;9.00;9.00;;;;;23.39;70.80;101065.84;5099231;27;45321;-71
2022/06/04 08:41:55;;;;;;;;;11.00;11.00;;;;;23.47;70.57;101065.41;5077273;27;45326;-71
2022/06/04 08:44:26;;;;;;;;;13.00;13.00;;;;;23.51;69.37;101061.13;5080595;27;45382;-71
2022/06/04 08:47:00;;;;;;;;;11.00;11.00;;;;;23.51;69.29;101055.69;5080110;27;45446;-71
2022/06/04 08:49:31;;;;;;;;;10.67;9.67;;;;;23.57;69.02;101064.69;5095789;27;46334;-71
2022/06/04 08:52:00;;;;;;;;;14.67;13.33;;;;;23.61;68.88;101071.25;5079625;27;45829;-70
2022/06/04 09:00:16;;;;;;;;;10.33;10.33;;;;;23.75;67.15;101071.69;5079836;28;45404;-72
2022/06/04 09:02:48;;;;;;;;;11.00;10.33;;;;;23.80;67.71;101079.06;5078965;27;45674;-72
2022/06/04 09:05:24;;;;;;;;;10.33;10.33;;;;;23.86;67.87;101083.47;5092134;27;45378;-72
2022/06/04 09:07:54;;;;;;;;;9.33;9.33;;;;;23.90;67.93;101089.19;5099664;27;45288;-72
2022/06/04 09:10:31;;;;;;;;;10.00;9.00;;;;;23.94;67.44;101093.00;5100376;27;45915;-74
2022/06/04 09:13:04;;;;;;;;;8.00;8.00;;;;;24.02;67.17;101098.00;5098468;27;46117;-72
2022/06/04 09:15:36;;;;;;;;;7.67;7.67;;;;;24.11;65.93;101100.22;5098793;27;45342;-72
2022/06/04 09:18:10;;;;;;;;;8.00;8.00;;;;;24.16;66.42;101108.47;5100458;27;45430;-72
2022/06/04 09:20:43;;;;;;;;;8.67;8.67;;;;;24.21;66.49;101109.31;5099845;27;46810;-72
2022/06/04 09:23:11;;;;;;;;;6.67;6.67;;;;;24.28;65.96;101100.16;5100324;27;45275;-73
2022/06/04 09:26:10;;;;;;;;;12.33;8.67;;;;;24.30;65.44;101098.00;5098833;27;45402;-72
2022/06/04 09:29:03;;;;;;;;;7.67;7.67;;;;;24.34;65.59;101107.28;5096807;27;45266;-72
2022/06/04 09:31:34;;;;;;;;;8.33;8.33;;;;;24.38;65.56;101102.13;5098523;27;48058;-72
2022/06/04 09:34:16;;;;;;;;;6.00;6.00;;;;;24.37;64.46;101108.66;5100148;27;45230;-72
2022/06/04 09:36:46;;;;;;;;;9.00;9.00;;;;;24.43;63.88;101108.44;5099931;27;45272;-72
2022/06/04 09:39:29;;;;;;;;;6.00;5.67;;;;;24.49;64.00;101112.00;5099899;27;45380;-72
2022/06/04 09:42:03;;;;;;;;;7.33;7.33;;;;;24.54;63.16;101114.75;5115217;27;49795;-71
2022/06/04 09:44:31;;;;;;;;;6.00;6.00;;;;;24.55;62.42;101091.97;5100059;27;45226;-72
2022/06/04 09:47:06;;;;;;;;;6.00;6.00;;;;;24.68;62.79;101107.00;5100233;27;45386;-71
2022/06/04 09:49:38;;;;;;;;;8.33;7.00;;;;;24.72;63.02;101096.41;5099951;27;45181;-71
2022/06/04 09:52:23;;;;;;;;;8.00;6.67;;;;;24.81;62.87;101105.69;5099868;27;46125;-71
2022/06/04 09:54:58;;;;;;;;;9.67;8.67;;;;;24.84;62.34;101099.75;5099961;27;45371;-72
2022/06/04 09:57:32;;;;;;;;;9.00;8.00;;;;;24.95;62.86;101094.41;5098623;27;45724;-70
2022/06/04 10:00:00;;;;;;;;;7.00;7.00;;;;;25.09;62.53;101102.91;5096962;27;47186;-71
2022/06/04 10:02:26;;;;;;;;;4.67;4.67;;;;;25.16;61.50;101089.91;5098181;27;47028;-72
2022/06/04 10:05:02;;;;;;;;;5.00;5.00;;;;;25.21;60.90;101086.38;5090304;27;45266;-72
2022/06/04 10:07:31;;;;;;;;;8.00;7.00;;;;;25.38;61.06;101099.75;5079369;28;45276;-72
2022/06/04 10:10:07;;;;;;;;;5.67;5.67;;;;;25.41;59.31;101093.00;5077831;28;47356;-72
2022/06/04 10:15:36;;;;;;;;;6.00;6.00;;;;;25.66;61.15;101094.19;5077997;28;45643;-71
2022/06/04 10:18:24;;;;;;;;;3.33;3.33;;;;;25.83;60.24;101092.03;5093845;27;45385;-71
2022/06/04 10:20:58;;;;;;;;;6.67;5.00;;;;;25.99;59.08;101081.19;5077794;27;45568;-72
2022/06/04 10:23:24;;;;;;;;;5.67;5.00;;;;;26.12;59.59;101077.09;5078832;28;45626;-71
2022/06/04 10:26:17;;;;;;;;;4.67;4.67;;;;;26.34;59.02;101079.56;5078950;27;45215;-73
2022/06/04 10:29:00;;;;;;;;;4.67;4.67;;;;;26.57;58.71;101085.53;5079075;27;45326;-72
2022/06/04 10:31:31;;;;;;;;;5.33;4.00;;;;;26.75;58.50;101083.31;5078689;28;45440;-70
2022/06/04 10:34:19;;;;;;;;;4.00;3.67;;;;;26.89;57.38;101089.03;5077219;28;48473;-72
2022/06/04 10:37:13;;;;;;;;;3.00;3.00;;;;;27.04;55.38;101071.84;5078819;28;45366;-72
2022/06/04 10:39:44;;;;;;;;;4.00;4.00;;;;;27.25;56.82;101077.22;5078429;28;45554;-70
2022/06/04 10:42:31;;;;;;;;;2.00;2.00;;;;;27.45;56.50;101079.00;5078227;27;45359;-71
2022/06/04 10:45:05;;;;;;;;;2.33;2.00;;;;;27.67;54.64;101083.28;5078386;28;46691;-71
2022/06/04 10:48:03;;;;;;;;;4.00;4.00;;;;;27.82;54.83;101071.47;5078807;28;45268;-71
2022/06/04 10:53:32;;;;;;;;;4.00;4.00;;;;;28.29;53.58;101082.06;5081891;28;45234;-71
2022/06/04 10:56:04;;;;;;;;;4.00;4.00;;;;;28.48;53.37;101078.59;5081706;28;46158;-71
2022/06/04 10:58:45;;;;;;;;;3.00;3.00;;;;;28.66;53.08;101074.31;5082072;28;45309;-71
2022/06/04 11:01:23;;;;;;;;;4.00;4.00;;;;;28.79;51.58;101059.13;5081820;27;45367;-71
2022/06/04 11:04:16;;;;;;;;;2.00;2.00;;;;;29.06;51.26;101084.31;5080300;27;46394;-71
2022/06/04 11:06:49;;;;;;;;;2.00;2.00;;;;;29.29;51.76;101076.34;5102434;27;45326;-71
2022/06/04 11:09:18;;;;;;;;;1.00;1.00;;;;;29.46;49.26;101067.63;5102334;27;45413;-71
2022/06/04 11:11:58;;;;;;;;;1.00;1.00;;;;;29.69;49.88;101067.91;5102237;27;45340;-71
2022/06/04 11:14:48;;;;;;;;;1.00;1.00;;;;;29.91;46.91;101070.00;5100870;27;46181;-71
2022/06/04 11:17:24;;;;;;;;;2.00;2.00;;;;;30.10;43.62;101074.63;5099291;27;45356;-72
2022/06/04 11:20:04;;;;;;;;;0.33;0.33;;;;;30.15;45.88;101065.50;5101987;27;45265;-71
2022/06/04 11:22:38;;;;;;;;;0.33;0.33;;;;;30.35;44.74;101059.69;5102461;27;45741;-72
2022/06/04 11:25:27;;;;;;;;;1.00;1.00;;;;;30.50;44.20;101066.03;5101959;27;45383;-72
2022/06/04 11:28:14;;;;;;;;;1.00;1.00;;;;;30.61;43.25;101055.66;5101347;27;45495;-72
2022/06/04 11:30:39;;;;;;;;;2.00;2.00;;;;;30.76;43.06;101062.81;5101413;27;45319;-71
2022/06/04 11:33:26;;;;;;;;;2.67;2.00;;;;;30.89;43.04;101060.38;5090455;27;45287;-72
2022/06/04 11:35:55;;;;;;;;;1.00;1.00;;;;;31.08;43.89;101066.56;5081063;28;45427;-71
2022/06/04 11:38:30;;;;;;;;;2.33;2.33;;;;;31.23;42.13;101062.69;5081010;27;45509;-72
2022/06/04 11:40:58;;;;;;;;;2.00;2.00;;;;;31.36;41.95;101066.53;5080060;27;45507;-73
2022/06/04 11:43:41;;;;;;;;;3.33;2.33;;;;;31.52;40.15;101063.47;5076697;27;45679;-72
2022/06/04 11:46:38;;;;;;;;;1.00;1.00;;;;;31.58;40.71;101061.41;5078014;28;47442;-72